sensor_id;sensor_type;location;lat;lon;timestamp;P1;durP1;ratioP1;P2;durP2;ratioP2
24030;SDS011;12240;51.142;22.486;2023-02-04T00:00:23;20.70;;;9.25;;
24030;SDS011;12240;51.142;22.486;2023-02-04T00:02:53;22.73;;;10.40;;
24030;SDS011;12240;51.142;22.486;2023-02-04T00:05:21;19.60;;;9.95;;
24030;SDS011;12240;51.142;22.486;2023-02-04T00:07:50;21.08;;;10.15;;
24030;SDS011;12240;51.142;22.486;2023-02-04T00:10:18;20.60;;;10.02;;
24030;SDS011;12240;51.142;22.486;2023-02-04T00:12:47;21.48;;;11.18;;
24030;SDS011;12240;51.142;22.486;2023-02-04T00:15:15;23.50;;;11.07;;
24030;SDS011;12240;51.142;22.486;2023-02-04T00:17:44;23.42;;;11.60;;
24030;SDS011;12240;51.142;22.486;2023-02-04T00:20:12;25.70;;;11.35;;
24030;SDS011;12240;51.142;22.486;2023-02-04T00:22:41;22.77;;;11.23;;
24030;SDS011;12240;51.142;22.486;2023-02-04T00:25:10;24.42;;;10.48;;
24030;SDS011;12240;51.142;22.486;2023-02-04T00:27:39;21.65;;;11.30;;
24030;SDS011;12240;51.142;22.486;2023-02-04T00:30:08;19.55;;;9.15;;
24030;SDS011;12240;51.142;22.486;2023-02-04T00:32:40;24.15;;;10.82;;
24030;SDS011;12240;51.142;22.486;2023-02-04T00:35:08;18.05;;;8.48;;
24030;SDS011;12240;51.142;22.486;2023-02-04T00:37:37;19.92;;;9.38;;
24030;SDS011;12240;51.142;22.486;2023-02-04T00:40:05;21.88;;;10.10;;
24030;SDS011;12240;51.142;22.486;2023-02-04T00:42:36;28.30;;;12.77;;
24030;SDS011;12240;51.142;22.486;2023-02-04T00:45:05;25.60;;;10.88;;
24030;SDS011;12240;51.142;22.486;2023-02-04T00:47:35;20.75;;;12.07;;
24030;SDS011;12240;51.142;22.486;2023-02-04T00:50:03;18.45;;;8.68;;
24030;SDS011;12240;51.142;22.486;2023-02-04T00:52:33;18.50;;;8.85;;
24030;SDS011;12240;51.142;22.486;2023-02-04T00:55:03;17.73;;;8.55;;
24030;SDS011;12240;51.142;22.486;2023-02-04T00:57:34;16.65;;;8.93;;
24030;SDS011;12240;51.142;22.486;2023-02-04T01:00:04;20.52;;;8.75;;
24030;SDS011;12240;51.142;22.486;2023-02-04T01:02:32;19.83;;;8.23;;
24030;SDS011;12240;51.142;22.486;2023-02-04T01:05:01;21.80;;;9.23;;
24030;SDS011;12240;51.142;22.486;2023-02-04T01:07:30;16.80;;;8.50;;
24030;SDS011;12240;51.142;22.486;2023-02-04T01:09:58;20.85;;;8.65;;
24030;SDS011;12240;51.142;22.486;2023-02-04T01:12:26;20.27;;;9.15;;
24030;SDS011;12240;51.142;22.486;2023-02-04T01:14:55;17.67;;;8.40;;
24030;SDS011;12240;51.142;22.486;2023-02-04T01:17:24;20.73;;;8.27;;
24030;SDS011;12240;51.142;22.486;2023-02-04T01:19:53;18.83;;;9.45;;
24030;SDS011;12240;51.142;22.486;2023-02-04T01:22:22;17.98;;;8.38;;
24030;SDS011;12240;51.142;22.486;2023-02-04T01:24:50;21.95;;;10.50;;
24030;SDS011;12240;51.142;22.486;2023-02-04T01:27:37;17.73;;;8.30;;
24030;SDS011;12240;51.142;22.486;2023-02-04T01:30:05;18.13;;;8.57;;
24030;SDS011;12240;51.142;22.486;2023-02-04T01:32:34;19.48;;;8.35;;
24030;SDS011;12240;51.142;22.486;2023-02-04T01:35:03;20.10;;;9.05;;
24030;SDS011;12240;51.142;22.486;2023-02-04T01:37:32;18.33;;;8.82;;
24030;SDS011;12240;51.142;22.486;2023-02-04T01:40:01;19.88;;;8.70;;
24030;SDS011;12240;51.142;22.486;2023-02-04T01:42:29;18.50;;;7.55;;
24030;SDS011;12240;51.142;22.486;2023-02-04T01:44:58;17.52;;;8.50;;
24030;SDS011;12240;51.142;22.486;2023-02-04T01:47:26;13.68;;;6.82;;
24030;SDS011;12240;51.142;22.486;2023-02-04T01:49:55;14.55;;;7.10;;
24030;SDS011;12240;51.142;22.486;2023-02-04T01:52:23;15.80;;;8.05;;
24030;SDS011;12240;51.142;22.486;2023-02-04T01:54:53;16.88;;;8.18;;
24030;SDS011;12240;51.142;22.486;2023-02-04T01:57:22;17.92;;;7.65;;
24030;SDS011;12240;51.142;22.486;2023-02-04T01:59:51;19.25;;;9.32;;
24030;SDS011;12240;51.142;22.486;2023-02-04T02:02:41;26.40;;;10.25;;
24030;SDS011;12240;51.142;22.486;2023-02-04T02:05:20;18.77;;;8.35;;
24030;SDS011;12240;51.142;22.486;2023-02-04T02:08:04;16.50;;;8.00;;
24030;SDS011;12240;51.142;22.486;2023-02-04T02:10:37;17.50;;;8.52;;
24030;SDS011;12240;51.142;22.486;2023-02-04T02:13:10;14.80;;;8.02;;
24030;SDS011;12240;51.142;22.486;2023-02-04T02:15:42;17.90;;;8.95;;
24030;SDS011;12240;51.142;22.486;2023-02-04T02:18:10;21.95;;;9.40;;
24030;SDS011;12240;51.142;22.486;2023-02-04T02:20:39;17.35;;;8.07;;
24030;SDS011;12240;51.142;22.486;2023-02-04T02:26:11;13.82;;;6.38;;
24030;SDS011;12240;51.142;22.486;2023-02-04T02:28:41;15.98;;;8.23;;
24030;SDS011;12240;51.142;22.486;2023-02-04T02:31:10;14.60;;;6.68;;
24030;SDS011;12240;51.142;22.486;2023-02-04T02:33:39;14.15;;;7.85;;
24030;SDS011;12240;51.142;22.486;2023-02-04T02:36:08;18.25;;;7.90;;
24030;SDS011;12240;51.142;22.486;2023-02-04T02:38:37;18.42;;;8.02;;
24030;SDS011;12240;51.142;22.486;2023-02-04T02:41:05;17.48;;;8.82;;
24030;SDS011;12240;51.142;22.486;2023-02-04T02:43:36;20.90;;;9.25;;
24030;SDS011;12240;51.142;22.486;2023-02-04T02:46:04;14.27;;;7.28;;
24030;SDS011;12240;51.142;22.486;2023-02-04T02:48:33;13.45;;;6.68;;
24030;SDS011;12240;51.142;22.486;2023-02-04T02:51:01;17.35;;;6.57;;
24030;SDS011;12240;51.142;22.486;2023-02-04T02:53:30;17.02;;;7.47;;
24030;SDS011;12240;51.142;22.486;2023-02-04T02:55:59;15.18;;;7.03;;
24030;SDS011;12240;51.142;22.486;2023-02-04T02:58:33;14.60;;;6.68;;
24030;SDS011;12240;51.142;22.486;2023-02-04T03:01:06;15.90;;;6.70;;
24030;SDS011;12240;51.142;22.486;2023-02-04T03:03:44;15.80;;;6.63;;
24030;SDS011;12240;51.142;22.486;2023-02-04T03:06:20;15.23;;;6.82;;
24030;SDS011;12240;51.142;22.486;2023-02-04T03:08:53;16.38;;;7.93;;
24030;SDS011;12240;51.142;22.486;2023-02-04T03:11:23;15.65;;;7.10;;
24030;SDS011;12240;51.142;22.486;2023-02-04T03:13:52;11.15;;;6.13;;
24030;SDS011;12240;51.142;22.486;2023-02-04T03:16:20;14.98;;;6.90;;
24030;SDS011;12240;51.142;22.486;2023-02-04T03:18:48;14.77;;;6.95;;
24030;SDS011;12240;51.142;22.486;2023-02-04T03:21:17;12.70;;;5.80;;
24030;SDS011;12240;51.142;22.486;2023-02-04T03:23:45;14.18;;;7.30;;
24030;SDS011;12240;51.142;22.486;2023-02-04T03:26:13;13.88;;;6.22;;
24030;SDS011;12240;51.142;22.486;2023-02-04T03:28:41;12.75;;;6.45;;
24030;SDS011;12240;51.142;22.486;2023-02-04T03:31:10;12.93;;;5.60;;
24030;SDS011;12240;51.142;22.486;2023-02-04T03:33:38;12.65;;;5.90;;
24030;SDS011;12240;51.142;22.486;2023-02-04T03:36:08;12.20;;;5.90;;
24030;SDS011;12240;51.142;22.486;2023-02-04T03:38:36;11.95;;;5.60;;
24030;SDS011;12240;51.142;22.486;2023-02-04T03:41:05;12.50;;;5.22;;
24030;SDS011;12240;51.142;22.486;2023-02-04T03:43:33;9.85;;;5.07;;
24030;SDS011;12240;51.142;22.486;2023-02-04T03:46:01;10.52;;;5.32;;
24030;SDS011;12240;51.142;22.486;2023-02-04T03:48:30;13.95;;;5.85;;
24030;SDS011;12240;51.142;22.486;2023-02-04T03:50:58;10.25;;;5.40;;
24030;SDS011;12240;51.142;22.486;2023-02-04T03:53:26;12.80;;;5.55;;
24030;SDS011;12240;51.142;22.486;2023-02-04T03:55:54;12.35;;;6.35;;
24030;SDS011;12240;51.142;22.486;2023-02-04T03:58:22;8.50;;;4.65;;
24030;SDS011;12240;51.142;22.486;2023-02-04T04:00:50;15.85;;;6.43;;
24030;SDS011;12240;51.142;22.486;2023-02-04T04:03:18;11.98;;;5.32;;
24030;SDS011;12240;51.142;22.486;2023-02-04T04:05:46;13.48;;;6.07;;
24030;SDS011;12240;51.142;22.486;2023-02-04T04:08:15;12.73;;;5.60;;
24030;SDS011;12240;51.142;22.486;2023-02-04T04:10:43;13.40;;;6.05;;
24030;SDS011;12240;51.142;22.486;2023-02-04T04:13:12;10.63;;;5.18;;
24030;SDS011;12240;51.142;22.486;2023-02-04T04:15:40;11.98;;;5.85;;
24030;SDS011;12240;51.142;22.486;2023-02-04T04:18:08;11.98;;;5.60;;
24030;SDS011;12240;51.142;22.486;2023-02-04T04:20:36;13.10;;;5.60;;
24030;SDS011;12240;51.142;22.486;2023-02-04T04:23:04;11.90;;;5.90;;
24030;SDS011;12240;51.142;22.486;2023-02-04T04:25:32;12.05;;;5.53;;
24030;SDS011;12240;51.142;22.486;2023-02-04T04:28:00;11.27;;;5.60;;
24030;SDS011;12240;51.142;22.486;2023-02-04T04:30:28;11.90;;;5.68;;
24030;SDS011;12240;51.142;22.486;2023-02-04T04:32:57;13.57;;;5.93;;
24030;SDS011;12240;51.142;22.486;2023-02-04T04:35:25;12.00;;;4.88;;
24030;SDS011;12240;51.142;22.486;2023-02-04T04:37:53;14.18;;;6.55;;
24030;SDS011;12240;51.142;22.486;2023-02-04T04:40:21;14.15;;;5.85;;
24030;SDS011;12240;51.142;22.486;2023-02-04T04:42:49;12.23;;;5.55;;
24030;SDS011;12240;51.142;22.486;2023-02-04T04:45:17;11.80;;;5.63;;
24030;SDS011;12240;51.142;22.486;2023-02-04T04:47:47;12.05;;;5.88;;
24030;SDS011;12240;51.142;22.486;2023-02-04T04:50:15;11.98;;;5.70;;
24030;SDS011;12240;51.142;22.486;2023-02-04T04:52:43;12.43;;;6.55;;
24030;SDS011;12240;51.142;22.486;2023-02-04T04:55:12;12.02;;;5.50;;
24030;SDS011;12240;51.142;22.486;2023-02-04T04:57:40;17.77;;;6.40;;
24030;SDS011;12240;51.142;22.486;2023-02-04T05:00:09;12.90;;;5.30;;
24030;SDS011;12240;51.142;22.486;2023-02-04T05:02:44;15.43;;;6.28;;
24030;SDS011;12240;51.142;22.486;2023-02-04T05:05:13;10.38;;;4.97;;
24030;SDS011;12240;51.142;22.486;2023-02-04T05:07:41;11.00;;;5.25;;
24030;SDS011;12240;51.142;22.486;2023-02-04T05:10:09;8.52;;;4.45;;
24030;SDS011;12240;51.142;22.486;2023-02-04T05:12:37;8.25;;;4.32;;
24030;SDS011;12240;51.142;22.486;2023-02-04T05:15:05;12.10;;;4.90;;
24030;SDS011;12240;51.142;22.486;2023-02-04T05:17:34;10.65;;;4.25;;
24030;SDS011;12240;51.142;22.486;2023-02-04T05:20:05;13.63;;;4.68;;
24030;SDS011;12240;51.142;22.486;2023-02-04T05:22:34;9.43;;;4.60;;
24030;SDS011;12240;51.142;22.486;2023-02-04T05:25:03;10.23;;;4.80;;
24030;SDS011;12240;51.142;22.486;2023-02-04T05:27:31;11.00;;;4.88;;
24030;SDS011;12240;51.142;22.486;2023-02-04T05:29:59;9.98;;;5.13;;
24030;SDS011;12240;51.142;22.486;2023-02-04T05:32:27;10.85;;;5.28;;
24030;SDS011;12240;51.142;22.486;2023-02-04T05:34:55;13.68;;;5.30;;
24030;SDS011;12240;51.142;22.486;2023-02-04T05:37:23;13.07;;;5.50;;
24030;SDS011;12240;51.142;22.486;2023-02-04T05:39:51;11.45;;;5.40;;
24030;SDS011;12240;51.142;22.486;2023-02-04T05:42:19;14.05;;;5.30;;
24030;SDS011;12240;51.142;22.486;2023-02-04T05:44:47;11.65;;;5.43;;
24030;SDS011;12240;51.142;22.486;2023-02-04T05:47:16;10.98;;;4.95;;
24030;SDS011;12240;51.142;22.486;2023-02-04T05:49:46;11.23;;;5.30;;
24030;SDS011;12240;51.142;22.486;2023-02-04T05:52:14;10.63;;;5.47;;
24030;SDS011;12240;51.142;22.486;2023-02-04T05:54:43;14.48;;;5.75;;
24030;SDS011;12240;51.142;22.486;2023-02-04T05:57:11;11.50;;;5.43;;
24030;SDS011;12240;51.142;22.486;2023-02-04T05:59:39;10.45;;;5.30;;
24030;SDS011;12240;51.142;22.486;2023-02-04T06:02:07;12.07;;;4.65;;
24030;SDS011;12240;51.142;22.486;2023-02-04T06:04:35;10.13;;;4.80;;
24030;SDS011;12240;51.142;22.486;2023-02-04T06:07:03;9.40;;;4.93;;
24030;SDS011;12240;51.142;22.486;2023-02-04T06:09:32;11.65;;;5.15;;
24030;SDS011;12240;51.142;22.486;2023-02-04T06:12:00;10.10;;;5.03;;
24030;SDS011;12240;51.142;22.486;2023-02-04T06:14:28;11.20;;;4.80;;
24030;SDS011;12240;51.142;22.486;2023-02-04T06:16:55;10.75;;;4.97;;
24030;SDS011;12240;51.142;22.486;2023-02-04T06:19:26;9.35;;;4.88;;
24030;SDS011;12240;51.142;22.486;2023-02-04T06:21:53;12.95;;;6.43;;
24030;SDS011;12240;51.142;22.486;2023-02-04T06:24:22;11.98;;;5.53;;
24030;SDS011;12240;51.142;22.486;2023-02-04T06:26:50;13.73;;;6.97;;
24030;SDS011;12240;51.142;22.486;2023-02-04T06:29:18;10.52;;;5.50;;
24030;SDS011;12240;51.142;22.486;2023-02-04T06:31:46;13.15;;;6.10;;
24030;SDS011;12240;51.142;22.486;2023-02-04T06:34:15;10.27;;;5.35;;
24030;SDS011;12240;51.142;22.486;2023-02-04T06:36:44;16.88;;;6.95;;
24030;SDS011;12240;51.142;22.486;2023-02-04T06:39:12;8.50;;;4.45;;
24030;SDS011;12240;51.142;22.486;2023-02-04T06:41:41;11.63;;;5.55;;
24030;SDS011;12240;51.142;22.486;2023-02-04T06:44:09;8.48;;;4.45;;
24030;SDS011;12240;51.142;22.486;2023-02-04T06:46:39;11.50;;;4.15;;
24030;SDS011;12240;51.142;22.486;2023-02-04T06:49:07;6.97;;;3.85;;
24030;SDS011;12240;51.142;22.486;2023-02-04T06:51:35;8.43;;;3.97;;
24030;SDS011;12240;51.142;22.486;2023-02-04T06:54:04;5.25;;;3.17;;
24030;SDS011;12240;51.142;22.486;2023-02-04T06:56:32;5.85;;;2.95;;
24030;SDS011;12240;51.142;22.486;2023-02-04T06:59:01;5.22;;;2.38;;
24030;SDS011;12240;51.142;22.486;2023-02-04T07:01:29;5.72;;;2.65;;
24030;SDS011;12240;51.142;22.486;2023-02-04T07:03:59;5.80;;;3.03;;
24030;SDS011;12240;51.142;22.486;2023-02-04T07:06:27;5.03;;;2.58;;
24030;SDS011;12240;51.142;22.486;2023-02-04T07:08:55;7.47;;;2.80;;
24030;SDS011;12240;51.142;22.486;2023-02-04T07:11:23;9.02;;;2.97;;
24030;SDS011;12240;51.142;22.486;2023-02-04T07:13:52;4.90;;;2.75;;
24030;SDS011;12240;51.142;22.486;2023-02-04T07:16:21;6.78;;;2.47;;
24030;SDS011;12240;51.142;22.486;2023-02-04T07:18:49;6.03;;;2.90;;
24030;SDS011;12240;51.142;22.486;2023-02-04T07:21:17;5.50;;;2.10;;
24030;SDS011;12240;51.142;22.486;2023-02-04T07:23:45;5.32;;;3.10;;
24030;SDS011;12240;51.142;22.486;2023-02-04T07:26:14;8.27;;;2.60;;
24030;SDS011;12240;51.142;22.486;2023-02-04T07:28:42;5.43;;;2.90;;
24030;SDS011;12240;51.142;22.486;2023-02-04T07:31:26;5.95;;;2.65;;
24030;SDS011;12240;51.142;22.486;2023-02-04T07:33:55;6.88;;;2.90;;
24030;SDS011;12240;51.142;22.486;2023-02-04T07:36:23;7.35;;;3.28;;
24030;SDS011;12240;51.142;22.486;2023-02-04T07:38:52;6.85;;;3.80;;
24030;SDS011;12240;51.142;22.486;2023-02-04T07:41:20;10.02;;;3.30;;
24030;SDS011;12240;51.142;22.486;2023-02-04T07:43:49;10.73;;;4.18;;
24030;SDS011;12240;51.142;22.486;2023-02-04T07:46:17;5.43;;;2.95;;
24030;SDS011;12240;51.142;22.486;2023-02-04T07:48:45;11.30;;;4.82;;
24030;SDS011;12240;51.142;22.486;2023-02-04T07:51:13;8.23;;;4.43;;
24030;SDS011;12240;51.142;22.486;2023-02-04T07:53:41;12.02;;;5.20;;
24030;SDS011;12240;51.142;22.486;2023-02-04T07:56:10;11.68;;;5.35;;
24030;SDS011;12240;51.142;22.486;2023-02-04T07:58:39;11.65;;;4.80;;
24030;SDS011;12240;51.142;22.486;2023-02-04T08:01:09;12.52;;;6.72;;
24030;SDS011;12240;51.142;22.486;2023-02-04T08:03:38;7.95;;;4.43;;
24030;SDS011;12240;51.142;22.486;2023-02-04T08:06:08;10.77;;;6.40;;
24030;SDS011;12240;51.142;22.486;2023-02-04T08:08:36;8.38;;;4.30;;
24030;SDS011;12240;51.142;22.486;2023-02-04T08:11:05;7.35;;;3.47;;
24030;SDS011;12240;51.142;22.486;2023-02-04T08:13:33;8.25;;;3.55;;
24030;SDS011;12240;51.142;22.486;2023-02-04T08:16:01;10.88;;;3.92;;
24030;SDS011;12240;51.142;22.486;2023-02-04T08:18:30;17.80;;;5.30;;
24030;SDS011;12240;51.142;22.486;2023-02-04T08:20:58;17.45;;;5.03;;
24030;SDS011;12240;51.142;22.486;2023-02-04T08:23:27;14.65;;;4.80;;
24030;SDS011;12240;51.142;22.486;2023-02-04T08:25:56;15.35;;;5.45;;
24030;SDS011;12240;51.142;22.486;2023-02-04T08:28:24;11.77;;;5.38;;
24030;SDS011;12240;51.142;22.486;2023-02-04T08:30:52;11.57;;;5.43;;
24030;SDS011;12240;51.142;22.486;2023-02-04T08:33:22;11.30;;;5.13;;
24030;SDS011;12240;51.142;22.486;2023-02-04T08:35:50;12.27;;;4.95;;
24030;SDS011;12240;51.142;22.486;2023-02-04T08:38:19;10.25;;;4.72;;
24030;SDS011;12240;51.142;22.486;2023-02-04T08:40:47;7.45;;;4.07;;
24030;SDS011;12240;51.142;22.486;2023-02-04T08:43:15;11.15;;;4.38;;
24030;SDS011;12240;51.142;22.486;2023-02-04T08:45:43;10.18;;;4.47;;
24030;SDS011;12240;51.142;22.486;2023-02-04T08:48:12;10.77;;;3.90;;
24030;SDS011;12240;51.142;22.486;2023-02-04T08:50:40;13.73;;;4.22;;
24030;SDS011;12240;51.142;22.486;2023-02-04T08:53:09;9.88;;;4.30;;
24030;SDS011;12240;51.142;22.486;2023-02-04T08:55:38;9.48;;;3.78;;
24030;SDS011;12240;51.142;22.486;2023-02-04T08:58:07;9.45;;;4.20;;
24030;SDS011;12240;51.142;22.486;2023-02-04T09:00:35;9.77;;;3.83;;
24030;SDS011;12240;51.142;22.486;2023-02-04T09:03:04;9.52;;;4.43;;
24030;SDS011;12240;51.142;22.486;2023-02-04T09:05:32;10.35;;;3.95;;
24030;SDS011;12240;51.142;22.486;2023-02-04T09:08:00;12.43;;;4.38;;
24030;SDS011;12240;51.142;22.486;2023-02-04T09:10:29;12.02;;;4.53;;
24030;SDS011;12240;51.142;22.486;2023-02-04T09:12:58;11.60;;;4.95;;
24030;SDS011;12240;51.142;22.486;2023-02-04T09:15:26;14.48;;;5.18;;
24030;SDS011;12240;51.142;22.486;2023-02-04T09:17:55;12.93;;;5.75;;
24030;SDS011;12240;51.142;22.486;2023-02-04T09:20:31;12.00;;;4.72;;
24030;SDS011;12240;51.142;22.486;2023-02-04T09:23:03;12.40;;;4.82;;
24030;SDS011;12240;51.142;22.486;2023-02-04T09:25:36;12.23;;;4.03;;
24030;SDS011;12240;51.142;22.486;2023-02-04T09:28:10;7.40;;;4.03;;
24030;SDS011;12240;51.142;22.486;2023-02-04T09:30:40;11.85;;;5.10;;
24030;SDS011;12240;51.142;22.486;2023-02-04T09:33:11;9.20;;;4.10;;
24030;SDS011;12240;51.142;22.486;2023-02-04T09:35:42;10.13;;;5.28;;
24030;SDS011;12240;51.142;22.486;2023-02-04T09:38:12;8.20;;;4.03;;
24030;SDS011;12240;51.142;22.486;2023-02-04T09:40:51;13.10;;;4.47;;
24030;SDS011;12240;51.142;22.486;2023-02-04T09:43:25;8.82;;;4.80;;
24030;SDS011;12240;51.142;22.486;2023-02-04T09:45:57;10.45;;;5.30;;
24030;SDS011;12240;51.142;22.486;2023-02-04T09:48:25;11.27;;;5.45;;
24030;SDS011;12240;51.142;22.486;2023-02-04T09:50:58;13.77;;;5.78;;
24030;SDS011;12240;51.142;22.486;2023-02-04T09:53:33;13.05;;;5.13;;
24030;SDS011;12240;51.142;22.486;2023-02-04T09:56:03;18.98;;;6.25;;
24030;SDS011;12240;51.142;22.486;2023-02-04T09:58:32;12.50;;;4.60;;
24030;SDS011;12240;51.142;22.486;2023-02-04T10:01:08;13.43;;;4.80;;
24030;SDS011;12240;51.142;22.486;2023-02-04T10:03:48;13.77;;;5.65;;
24030;SDS011;12240;51.142;22.486;2023-02-04T10:06:18;9.90;;;4.60;;
24030;SDS011;12240;51.142;22.486;2023-02-04T10:08:48;11.75;;;5.90;;
24030;SDS011;12240;51.142;22.486;2023-02-04T10:11:19;12.63;;;5.55;;
24030;SDS011;12240;51.142;22.486;2023-02-04T10:16:24;7.78;;;4.20;;
24030;SDS011;12240;51.142;22.486;2023-02-04T10:18:58;7.95;;;3.95;;
24030;SDS011;12240;51.142;22.486;2023-02-04T10:21:30;9.50;;;3.45;;
24030;SDS011;12240;51.142;22.486;2023-02-04T10:24:04;6.60;;;3.00;;
24030;SDS011;12240;51.142;22.486;2023-02-04T10:26:52;8.07;;;3.72;;
24030;SDS011;12240;51.142;22.486;2023-02-04T10:29:32;8.13;;;3.67;;
24030;SDS011;12240;51.142;22.486;2023-02-04T10:32:02;7.88;;;3.45;;
24030;SDS011;12240;51.142;22.486;2023-02-04T10:37:11;10.93;;;4.22;;
24030;SDS011;12240;51.142;22.486;2023-02-04T10:39:47;9.25;;;4.07;;
24030;SDS011;12240;51.142;22.486;2023-02-04T10:42:20;11.35;;;3.78;;
24030;SDS011;12240;51.142;22.486;2023-02-04T10:44:54;11.13;;;4.60;;
24030;SDS011;12240;51.142;22.486;2023-02-04T10:47:26;11.15;;;4.32;;
24030;SDS011;12240;51.142;22.486;2023-02-04T10:49:59;8.38;;;3.78;;
24030;SDS011;12240;51.142;22.486;2023-02-04T10:52:35;8.18;;;4.00;;
24030;SDS011;12240;51.142;22.486;2023-02-04T10:55:11;8.88;;;3.80;;
24030;SDS011;12240;51.142;22.486;2023-02-04T10:57:45;6.63;;;3.58;;
24030;SDS011;12240;51.142;22.486;2023-02-04T11:00:17;9.80;;;2.67;;
24030;SDS011;12240;51.142;22.486;2023-02-04T11:05:29;6.35;;;2.75;;
24030;SDS011;12240;51.142;22.486;2023-02-04T11:08:02;5.47;;;2.45;;
24030;SDS011;12240;51.142;22.486;2023-02-04T11:10:59;5.57;;;2.85;;
24030;SDS011;12240;51.142;22.486;2023-02-04T11:16:28;5.18;;;2.30;;
24030;SDS011;12240;51.142;22.486;2023-02-04T11:19:05;9.00;;;2.67;;
24030;SDS011;12240;51.142;22.486;2023-02-04T11:21:42;11.02;;;3.30;;
24030;SDS011;12240;51.142;22.486;2023-02-04T11:26:43;7.38;;;3.40;;
24030;SDS011;12240;51.142;22.486;2023-02-04T11:29:36;6.53;;;2.97;;
24030;SDS011;12240;51.142;22.486;2023-02-04T11:37:42;7.57;;;2.65;;
24030;SDS011;12240;51.142;22.486;2023-02-04T11:40:33;6.55;;;2.38;;
24030;SDS011;12240;51.142;22.486;2023-02-04T11:43:14;4.05;;;1.80;;
24030;SDS011;12240;51.142;22.486;2023-02-04T11:45:44;4.25;;;2.28;;
24030;SDS011;12240;51.142;22.486;2023-02-04T11:48:19;4.13;;;1.58;;
24030;SDS011;12240;51.142;22.486;2023-02-04T11:50:56;5.15;;;2.00;;
24030;SDS011;12240;51.142;22.486;2023-02-04T11:53:28;4.10;;;1.73;;
24030;SDS011;12240;51.142;22.486;2023-02-04T11:55:58;3.70;;;1.92;;
24030;SDS011;12240;51.142;22.486;2023-02-04T11:58:27;5.32;;;2.30;;
24030;SDS011;12240;51.142;22.486;2023-02-04T12:00:57;4.35;;;2.03;;
24030;SDS011;12240;51.142;22.486;2023-02-04T12:03:30;3.63;;;1.70;;
24030;SDS011;12240;51.142;22.486;2023-02-04T12:06:05;4.28;;;1.65;;
24030;SDS011;12240;51.142;22.486;2023-02-04T12:08:34;3.25;;;1.58;;
24030;SDS011;12240;51.142;22.486;2023-02-04T12:11:08;2.05;;;1.40;;
24030;SDS011;12240;51.142;22.486;2023-02-04T12:13:57;3.92;;;2.00;;
24030;SDS011;12240;51.142;22.486;2023-02-04T12:16:41;3.05;;;1.45;;
24030;SDS011;12240;51.142;22.486;2023-02-04T12:19:13;4.82;;;1.55;;
24030;SDS011;12240;51.142;22.486;2023-02-04T12:21:42;2.17;;;1.52;;
24030;SDS011;12240;51.142;22.486;2023-02-04T12:24:10;2.42;;;1.20;;
24030;SDS011;12240;51.142;22.486;2023-02-04T12:26:39;2.97;;;1.75;;
24030;SDS011;12240;51.142;22.486;2023-02-04T12:29:08;3.22;;;1.23;;
24030;SDS011;12240;51.142;22.486;2023-02-04T12:31:36;3.88;;;1.77;;
24030;SDS011;12240;51.142;22.486;2023-02-04T12:34:05;4.25;;;1.73;;
24030;SDS011;12240;51.142;22.486;2023-02-04T12:36:34;4.28;;;1.42;;
24030;SDS011;12240;51.142;22.486;2023-02-04T12:39:03;4.13;;;1.70;;
24030;SDS011;12240;51.142;22.486;2023-02-04T12:41:31;7.72;;;2.08;;
24030;SDS011;12240;51.142;22.486;2023-02-04T12:44:02;7.63;;;2.80;;
24030;SDS011;12240;51.142;22.486;2023-02-04T12:46:31;6.15;;;2.17;;
24030;SDS011;12240;51.142;22.486;2023-02-04T12:49:00;6.03;;;2.20;;
24030;SDS011;12240;51.142;22.486;2023-02-04T12:51:29;7.07;;;2.55;;
24030;SDS011;12240;51.142;22.486;2023-02-04T12:53:59;8.10;;;3.20;;
24030;SDS011;12240;51.142;22.486;2023-02-04T12:56:28;5.80;;;2.28;;
24030;SDS011;12240;51.142;22.486;2023-02-04T12:58:57;10.32;;;3.30;;
24030;SDS011;12240;51.142;22.486;2023-02-04T13:01:25;7.30;;;3.08;;
24030;SDS011;12240;51.142;22.486;2023-02-04T13:03:54;6.53;;;2.90;;
24030;SDS011;12240;51.142;22.486;2023-02-04T13:06:23;8.35;;;2.95;;
24030;SDS011;12240;51.142;22.486;2023-02-04T13:11:23;3.53;;;2.25;;
24030;SDS011;12240;51.142;22.486;2023-02-04T13:13:52;4.20;;;2.47;;
24030;SDS011;12240;51.142;22.486;2023-02-04T13:16:21;5.88;;;2.65;;
24030;SDS011;12240;51.142;22.486;2023-02-04T13:18:52;10.10;;;4.30;;
24030;SDS011;12240;51.142;22.486;2023-02-04T13:21:24;11.35;;;4.00;;
24030;SDS011;12240;51.142;22.486;2023-02-04T13:23:52;12.13;;;5.00;;
24030;SDS011;12240;51.142;22.486;2023-02-04T13:26:21;11.88;;;4.55;;
24030;SDS011;12240;51.142;22.486;2023-02-04T13:28:51;9.02;;;4.40;;
24030;SDS011;12240;51.142;22.486;2023-02-04T13:31:19;8.68;;;3.70;;
24030;SDS011;12240;51.142;22.486;2023-02-04T13:33:48;10.93;;;4.63;;
24030;SDS011;12240;51.142;22.486;2023-02-04T13:36:16;10.07;;;3.83;;
24030;SDS011;12240;51.142;22.486;2023-02-04T13:38:45;12.23;;;5.07;;
24030;SDS011;12240;51.142;22.486;2023-02-04T13:41:14;12.18;;;3.97;;
24030;SDS011;12240;51.142;22.486;2023-02-04T13:43:42;12.50;;;4.78;;
24030;SDS011;12240;51.142;22.486;2023-02-04T13:46:11;12.85;;;4.97;;
24030;SDS011;12240;51.142;22.486;2023-02-04T13:48:40;9.70;;;4.47;;
24030;SDS011;12240;51.142;22.486;2023-02-04T13:51:09;14.38;;;4.88;;
24030;SDS011;12240;51.142;22.486;2023-02-04T13:53:38;14.10;;;5.50;;
24030;SDS011;12240;51.142;22.486;2023-02-04T13:56:07;12.20;;;4.72;;
24030;SDS011;12240;51.142;22.486;2023-02-04T13:58:35;12.35;;;4.65;;
24030;SDS011;12240;51.142;22.486;2023-02-04T14:01:05;14.70;;;5.90;;
24030;SDS011;12240;51.142;22.486;2023-02-04T14:03:34;12.55;;;4.28;;
24030;SDS011;12240;51.142;22.486;2023-02-04T14:06:04;15.85;;;5.68;;
24030;SDS011;12240;51.142;22.486;2023-02-04T14:08:33;16.98;;;5.25;;
24030;SDS011;12240;51.142;22.486;2023-02-04T14:11:02;16.52;;;5.43;;
24030;SDS011;12240;51.142;22.486;2023-02-04T14:13:31;17.20;;;4.63;;
24030;SDS011;12240;51.142;22.486;2023-02-04T14:16:00;13.27;;;4.63;;
24030;SDS011;12240;51.142;22.486;2023-02-04T14:18:30;19.42;;;5.93;;
24030;SDS011;12240;51.142;22.486;2023-02-04T14:20:58;13.68;;;5.30;;
24030;SDS011;12240;51.142;22.486;2023-02-04T14:23:26;24.58;;;7.45;;
24030;SDS011;12240;51.142;22.486;2023-02-04T14:25:54;17.75;;;5.60;;
24030;SDS011;12240;51.142;22.486;2023-02-04T14:28:23;12.93;;;4.72;;
24030;SDS011;12240;51.142;22.486;2023-02-04T14:30:51;14.77;;;5.68;;
24030;SDS011;12240;51.142;22.486;2023-02-04T14:33:21;15.07;;;5.45;;
24030;SDS011;12240;51.142;22.486;2023-02-04T14:35:49;16.17;;;5.93;;
24030;SDS011;12240;51.142;22.486;2023-02-04T14:38:17;11.48;;;4.57;;
24030;SDS011;12240;51.142;22.486;2023-02-04T14:40:45;14.02;;;5.78;;
24030;SDS011;12240;51.142;22.486;2023-02-04T14:43:13;15.90;;;4.53;;
24030;SDS011;12240;51.142;22.486;2023-02-04T14:45:42;14.13;;;5.28;;
24030;SDS011;12240;51.142;22.486;2023-02-04T14:48:11;10.10;;;4.10;;
24030;SDS011;12240;51.142;22.486;2023-02-04T14:50:39;17.75;;;5.65;;
24030;SDS011;12240;51.142;22.486;2023-02-04T14:53:07;13.00;;;5.25;;
24030;SDS011;12240;51.142;22.486;2023-02-04T14:55:36;13.07;;;4.00;;
24030;SDS011;12240;51.142;22.486;2023-02-04T14:58:04;11.63;;;4.95;;
24030;SDS011;12240;51.142;22.486;2023-02-04T15:00:32;10.55;;;4.20;;
24030;SDS011;12240;51.142;22.486;2023-02-04T15:03:01;16.55;;;4.47;;
24030;SDS011;12240;51.142;22.486;2023-02-04T15:05:30;10.57;;;4.43;;